createdAt,value
2018-07-28T00:02:37.012Z,18.80
2018-07-28T00:07:34.538Z,18.90
2018-07-28T00:10:03.926Z,19.00
2018-07-28T01:02:37.889Z,17.90
2018-07-28T01:05:07.274Z,17.90
2018-07-28T01:07:36.219Z,18.10
2018-07-28T01:10:05.971Z,18.30
2018-07-28T02:02:46.933Z,17.80
2018-07-28T02:05:15.789Z,17.90
2018-07-28T02:07:44.666Z,18.00
2018-07-28T02:10:13.678Z,18.20
2018-07-28T03:02:37.038Z,17.80
2018-07-28T03:05:06.959Z,17.80
2018-07-28T03:07:35.821Z,18.00
2018-07-28T03:10:05.205Z,18.20
2018-07-28T04:02:52.455Z,18.40
2018-07-28T04:05:21.320Z,18.50
2018-07-28T04:07:50.205Z,18.70
2018-07-28T04:10:19.286Z,18.90
2018-07-28T05:02:37.147Z,21.50
2018-07-28T05:05:06.001Z,21.60
2018-07-28T05:07:35.004Z,22.00
2018-07-28T05:10:03.993Z,22.20
2018-07-28T06:02:37.364Z,23.40
2018-07-28T06:05:07.074Z,23.70
2018-07-28T06:07:36.084Z,24.00
2018-07-28T06:10:05.913Z,24.10
2018-07-28T07:02:41.597Z,23.50
2018-07-28T07:05:10.480Z,23.50
2018-07-28T07:07:39.529Z,23.50
2018-07-28T08:02:37.352Z,23.50
2018-07-28T08:07:34.728Z,23.80
2018-07-28T08:10:03.773Z,24.00
2018-07-28T09:02:37.321Z,25.20
2018-07-28T09:05:06.525Z,25.60
2018-07-28T09:07:35.534Z,26.10
2018-07-28T09:10:05.026Z,26.20
2018-07-28T10:02:38.693Z,26.40
2018-07-28T10:05:07.553Z,26.40
2018-07-28T10:07:36.589Z,26.90
2018-07-28T10:10:05.533Z,27.30
2018-07-28T11:02:36.977Z,28.70
2018-07-28T11:05:06.213Z,28.70
2018-07-28T11:07:36.221Z,29.10
2018-07-28T11:10:06.016Z,29.30
2018-07-28T12:02:36.962Z,28.30
2018-07-28T12:05:06.413Z,28.70
2018-07-28T12:07:35.384Z,29.10
2018-07-28T12:10:05.393Z,29.30
2018-07-28T13:02:39.801Z,30.20
2018-07-28T13:05:09.397Z,30.20
2018-07-28T13:07:38.328Z,31.00
2018-07-28T14:03:01.489Z,38.80
2018-07-28T14:05:30.348Z,37.80
2018-07-28T14:07:59.359Z,35.10
2018-07-28T15:02:46.232Z,31.20
2018-07-28T15:05:15.135Z,32.60
2018-07-28T15:07:44.031Z,32.90
2018-07-28T16:02:37.160Z,29.40
2018-07-28T16:05:06.709Z,29.10
2018-07-28T16:07:35.796Z,28.90
2018-07-28T16:10:04.846Z,29.00
2018-07-28T17:03:13.458Z,25.50
2018-07-28T17:05:42.355Z,25.30
2018-07-28T17:08:11.850Z,25.20
2018-07-28T17:10:40.865Z,25.30
2018-07-28T18:02:36.525Z,23.10
2018-07-28T18:05:06.028Z,23.00
2018-07-28T18:07:34.965Z,23.00
2018-07-28T18:10:03.798Z,23.10
2018-07-28T19:02:59.209Z,21.50
2018-07-28T19:07:57.590Z,21.40
2018-07-28T19:10:26.465Z,21.60
2018-07-28T20:02:37.029Z,19.90
2018-07-28T20:05:06.829Z,19.80
2018-07-28T20:07:35.758Z,19.90
2018-07-28T20:10:04.745Z,20.10
2018-07-28T21:02:37.522Z,19.20
2018-07-28T21:05:06.640Z,19.20
2018-07-28T21:07:35.638Z,19.50
2018-07-28T21:10:04.748Z,19.80
2018-07-28T22:02:37.733Z,18.80
2018-07-28T22:05:07.018Z,18.90
2018-07-28T22:07:36.020Z,19.00
2018-07-28T22:10:05.106Z,19.20
2018-07-28T23:02:37.119Z,18.90
2018-07-28T23:05:06.773Z,18.90
2018-07-28T23:07:35.794Z,19.10
2018-07-28T23:10:05.325Z,19.20
